createdAt,value
2023-02-27T00:03:29.163Z,3.20
2023-02-27T00:07:13.447Z,3.50
2023-02-27T00:10:56.072Z,3.50
2023-02-27T00:14:38.711Z,3.70
2023-02-27T00:18:21.366Z,3.20
2023-02-27T00:22:04.037Z,3.30
2023-02-27T00:25:48.053Z,4.60
2023-02-27T00:29:30.717Z,3.47
2023-02-27T00:33:13.404Z,3.67
2023-02-27T00:36:56.078Z,3.43
2023-02-27T00:40:38.773Z,3.30
2023-02-27T00:44:22.723Z,3.60
2023-02-27T00:48:05.723Z,3.60
2023-02-27T00:51:48.375Z,9.40
2023-02-27T00:55:31.048Z,3.93
2023-02-27T00:59:13.756Z,3.73
2023-02-27T01:02:57.806Z,3.90
2023-02-27T01:06:40.476Z,3.53
2023-02-27T01:10:23.224Z,3.20
2023-02-27T01:14:06.071Z,3.77
2023-02-27T01:17:49.260Z,3.60
2023-02-27T01:21:33.252Z,3.70
2023-02-27T01:25:16.102Z,3.50
2023-02-27T01:28:58.800Z,3.50
2023-02-27T01:32:41.558Z,3.90
2023-02-27T01:36:24.245Z,3.70
2023-02-27T01:40:09.746Z,4.20
2023-02-27T01:43:57.944Z,3.70
2023-02-27T01:47:43.499Z,3.87
2023-02-27T01:51:27.894Z,3.47
2023-02-27T01:55:13.340Z,3.87
2023-02-27T01:58:58.955Z,3.27
2023-02-27T02:02:44.746Z,3.83
2023-02-27T02:06:29.056Z,3.50
2023-02-27T02:10:14.129Z,3.70
2023-02-27T02:13:58.809Z,3.50
2023-02-27T02:17:48.076Z,3.73
2023-02-27T02:22:24.615Z,3.40
2023-02-27T02:26:36.791Z,3.70
2023-02-27T02:30:45.194Z,3.60
2023-02-27T02:35:01.276Z,3.50
2023-02-27T02:39:02.682Z,3.80
2023-02-27T02:42:50.569Z,3.50
2023-02-27T02:46:37.551Z,3.23
2023-02-27T02:50:25.601Z,3.40
2023-02-27T02:54:13.662Z,3.30
2023-02-27T02:58:02.609Z,3.70
2023-02-27T03:01:49.023Z,3.23
2023-02-27T03:05:34.298Z,3.67
2023-02-27T03:09:20.568Z,3.60
2023-02-27T03:13:05.704Z,3.43
2023-02-27T03:16:50.402Z,3.87
2023-02-27T03:20:35.647Z,3.70
2023-02-27T03:24:24.689Z,3.47
2023-02-27T03:28:10.618Z,3.60
2023-02-27T03:31:57.593Z,3.60
2023-02-27T03:35:44.893Z,3.63
2023-02-27T03:39:38.037Z,3.30
2023-02-27T03:43:26.753Z,3.70
2023-02-27T03:47:09.477Z,3.57
2023-02-27T03:50:52.155Z,3.60
2023-02-27T03:54:38.516Z,3.80
2023-02-27T03:58:21.203Z,3.83
2023-02-27T04:02:06.030Z,3.07
2023-02-27T04:05:48.794Z,3.20
2023-02-27T04:09:44.507Z,3.20
2023-02-27T04:13:47.046Z,3.40
2023-02-27T04:17:30.942Z,3.47
2023-02-27T04:21:20.300Z,3.77
2023-02-27T04:25:27.920Z,4.00
2023-02-27T04:29:16.276Z,3.37
2023-02-27T04:33:05.135Z,3.80
2023-02-27T04:36:49.835Z,3.67
2023-02-27T04:40:37.601Z,3.50
2023-02-27T04:44:22.830Z,3.53
2023-02-27T04:48:09.365Z,3.90
2023-02-27T04:51:54.409Z,4.07
2023-02-27T04:55:42.517Z,3.63
2023-02-27T04:59:27.266Z,3.93
2023-02-27T05:03:13.264Z,3.87
2023-02-27T05:06:56.667Z,3.63
2023-02-27T05:10:44.279Z,4.00
2023-02-27T05:14:30.465Z,3.30
2023-02-27T05:18:15.686Z,3.50
2023-02-27T05:22:03.115Z,3.57
2023-02-27T05:25:50.552Z,4.03
2023-02-27T05:29:37.655Z,3.60
2023-02-27T05:33:22.298Z,4.00
2023-02-27T05:37:09.279Z,3.77
2023-02-27T05:40:58.269Z,3.40
2023-02-27T05:44:43.947Z,4.00
2023-02-27T05:48:29.091Z,4.07
2023-02-27T05:52:14.142Z,4.10
2023-02-27T05:56:00.513Z,3.50
2023-02-27T05:59:47.354Z,3.60
2023-02-27T06:03:32.479Z,3.67
2023-02-27T06:07:15.550Z,3.60
2023-02-27T06:10:59.660Z,3.60
2023-02-27T06:14:42.299Z,3.47
2023-02-27T06:18:24.985Z,3.90
2023-02-27T06:22:07.650Z,3.90
2023-02-27T06:25:50.416Z,3.53
2023-02-27T06:29:34.446Z,3.60
2023-02-27T06:33:17.135Z,3.47
2023-02-27T06:36:59.797Z,3.67
2023-02-27T06:40:42.552Z,3.53
2023-02-27T06:44:25.200Z,3.30
2023-02-27T06:48:10.020Z,3.70
2023-02-27T06:51:52.674Z,3.50
2023-02-27T06:55:35.367Z,3.60
2023-02-27T06:59:17.992Z,3.80
2023-02-27T07:03:03.237Z,3.27
2023-02-27T07:07:34.942Z,3.63
2023-02-27T07:10:49.827Z,3.40
2023-02-27T07:14:32.503Z,3.20
2023-02-27T07:18:15.148Z,3.70
2023-02-27T07:21:59.211Z,3.77
2023-02-27T07:25:41.873Z,3.40
2023-02-27T07:29:24.496Z,3.97
2023-02-27T07:33:07.214Z,3.63
2023-02-27T07:36:50.045Z,3.70
2023-02-27T07:40:34.036Z,3.83
2023-02-27T07:44:16.629Z,3.27
2023-02-27T07:47:59.280Z,4.33
2023-02-27T07:51:43.088Z,3.60
2023-02-27T07:55:25.698Z,3.93
2023-02-27T07:59:09.792Z,3.43
2023-02-27T08:02:52.457Z,3.53
2023-02-27T08:06:35.168Z,3.60
2023-02-27T08:10:18.723Z,4.00
2023-02-27T08:14:02.290Z,4.03
2023-02-27T08:17:47.680Z,3.87
2023-02-27T08:21:30.750Z,4.03
2023-02-27T08:25:13.620Z,4.10
2023-02-27T08:28:56.299Z,4.13
2023-02-27T08:32:39.352Z,4.37
2023-02-27T08:36:23.321Z,4.37
2023-02-27T08:40:07.946Z,3.83
2023-02-27T08:43:50.612Z,4.50
2023-02-27T08:47:33.355Z,3.70
2023-02-27T08:51:16.228Z,4.40
2023-02-27T08:55:00.197Z,4.23
2023-02-27T08:58:42.814Z,3.90
2023-02-27T09:02:26.815Z,4.10
2023-02-27T09:06:09.889Z,4.50
2023-02-27T09:09:52.538Z,4.53
2023-02-27T09:13:37.633Z,4.43
2023-02-27T09:17:20.326Z,4.10
2023-02-27T09:21:03.379Z,4.30
2023-02-27T09:24:46.073Z,4.53
2023-02-27T09:28:28.708Z,5.23
2023-02-27T09:32:12.787Z,4.83
2023-02-27T09:35:55.533Z,5.07
2023-02-27T09:39:38.184Z,4.80
2023-02-27T09:43:23.740Z,5.27
2023-02-27T09:47:07.834Z,5.83
2023-02-27T09:50:52.511Z,5.03
2023-02-27T09:54:35.369Z,5.17
2023-02-27T09:58:30.568Z,5.50
2023-02-27T10:02:23.661Z,5.60
2023-02-27T10:06:22.919Z,5.30
2023-02-27T10:10:14.365Z,4.80
2023-02-27T10:14:01.036Z,4.97
2023-02-27T10:17:48.364Z,5.07
2023-02-27T10:21:35.476Z,5.30
2023-02-27T10:25:31.211Z,5.93
2023-02-27T10:29:21.326Z,5.10
2023-02-27T10:33:09.601Z,4.93
2023-02-27T10:36:54.136Z,4.63
2023-02-27T10:40:39.771Z,4.80
2023-02-27T10:44:24.435Z,5.30
2023-02-27T10:48:08.492Z,4.70
2023-02-27T10:52:08.507Z,4.60
2023-02-27T10:56:00.216Z,4.37
2023-02-27T10:59:42.940Z,3.93
2023-02-27T11:03:28.895Z,3.83
2023-02-27T11:07:14.702Z,3.67
2023-02-27T11:11:00.113Z,3.60
2023-02-27T11:14:50.840Z,3.30
2023-02-27T11:18:34.221Z,3.40
2023-02-27T11:22:20.104Z,3.03
2023-02-27T11:26:11.584Z,3.33
2023-02-27T11:29:59.043Z,2.90
2023-02-27T11:33:50.052Z,3.20
2023-02-27T11:37:36.289Z,3.20
2023-02-27T11:41:19.049Z,3.33
2023-02-27T11:45:03.368Z,3.33
2023-02-27T11:48:49.061Z,2.80
2023-02-27T11:52:35.729Z,2.83
2023-02-27T11:56:22.654Z,3.00
2023-02-27T12:00:09.007Z,2.73
2023-02-27T12:03:54.739Z,2.70
2023-02-27T12:07:42.931Z,2.70
2023-02-27T12:11:29.764Z,2.73
2023-02-27T12:15:21.082Z,2.70
2023-02-27T12:19:08.663Z,2.53
2023-02-27T12:22:54.925Z,2.80
2023-02-27T12:26:39.849Z,3.20
2023-02-27T12:30:24.625Z,2.87
2023-02-27T12:34:15.930Z,2.83
2023-02-27T12:38:00.344Z,3.03
2023-02-27T12:41:48.962Z,2.40
2023-02-27T12:45:54.929Z,2.63
2023-02-27T12:49:43.843Z,2.37
2023-02-27T12:53:49.080Z,2.70
2023-02-27T12:57:47.585Z,2.70
2023-02-27T13:01:40.648Z,2.80
2023-02-27T13:05:32.956Z,2.63
2023-02-27T13:09:27.042Z,2.87
2023-02-27T13:13:16.896Z,3.00
2023-02-27T13:17:05.330Z,3.00
2023-02-27T13:20:51.174Z,3.00
2023-02-27T13:24:35.327Z,3.10
2023-02-27T13:28:20.973Z,2.90
2023-02-27T13:32:13.634Z,2.90
2023-02-27T13:36:06.217Z,2.90
2023-02-27T13:39:56.683Z,3.20
2023-02-27T13:43:51.436Z,2.87
2023-02-27T13:47:44.621Z,3.30
2023-02-27T13:51:46.218Z,3.50
2023-02-27T13:55:35.201Z,2.93
2023-02-27T13:59:22.527Z,3.30
2023-02-27T14:03:08.208Z,3.23
2023-02-27T14:06:51.177Z,3.23
2023-02-27T14:10:37.100Z,2.90
2023-02-27T14:14:41.777Z,3.27
2023-02-27T14:18:54.720Z,3.60
2023-02-27T14:23:09.267Z,3.70
2023-02-27T14:26:54.605Z,3.83
2023-02-27T14:30:40.737Z,3.33
2023-02-27T14:34:23.979Z,3.60
2023-02-27T14:38:11.314Z,3.73
2023-02-27T14:42:03.842Z,3.63
2023-02-27T14:45:46.561Z,3.67
2023-02-27T14:49:30.858Z,3.50
2023-02-27T14:53:25.903Z,3.93
2023-02-27T14:57:16.859Z,3.80
2023-02-27T15:01:04.359Z,3.77
2023-02-27T15:04:56.858Z,3.60
2023-02-27T15:08:41.788Z,4.30
2023-02-27T15:12:27.642Z,3.97
2023-02-27T15:16:28.995Z,3.80
2023-02-27T15:20:25.516Z,3.97
2023-02-27T15:24:18.856Z,4.00
2023-02-27T15:28:08.587Z,4.27
2023-02-27T15:31:52.015Z,3.90
2023-02-27T15:35:37.427Z,4.13
2023-02-27T15:39:22.348Z,3.90
2023-02-27T15:43:06.625Z,3.67
2023-02-27T15:46:49.638Z,3.97
2023-02-27T15:50:34.531Z,4.20
2023-02-27T15:54:17.318Z,3.47
2023-02-27T15:58:03.346Z,3.90
2023-02-27T16:01:49.666Z,3.47
2023-02-27T16:05:36.223Z,4.03
2023-02-27T16:09:23.347Z,4.20
2023-02-27T16:13:31.214Z,4.10
2023-02-27T16:17:29.666Z,3.80
2023-02-27T16:21:16.583Z,3.97
2023-02-27T16:25:10.149Z,4.00
2023-02-27T16:28:55.244Z,3.97
2023-02-27T16:32:43.911Z,3.97
2023-02-27T16:36:28.093Z,3.70
2023-02-27T16:40:14.934Z,3.17
2023-02-27T16:43:57.648Z,3.97
2023-02-27T16:47:41.674Z,3.90
2023-02-27T16:51:26.294Z,4.20
2023-02-27T16:55:09.888Z,3.90
2023-02-27T16:58:52.940Z,4.00
2023-02-27T17:02:35.791Z,3.93
2023-02-27T17:06:19.822Z,3.77
2023-02-27T17:10:02.491Z,3.90
2023-02-27T17:13:45.224Z,4.57
2023-02-27T17:17:27.851Z,4.03
2023-02-27T17:21:10.505Z,5.03
2023-02-27T17:24:54.537Z,4.53
2023-02-27T17:28:37.158Z,6.70
2023-02-27T17:32:19.903Z,4.43
2023-02-27T17:36:03.345Z,3.80
2023-02-27T17:39:46.050Z,4.43
2023-02-27T17:43:30.020Z,4.50
2023-02-27T17:47:12.765Z,4.70
2023-02-27T17:50:55.422Z,4.50
2023-02-27T17:54:38.222Z,4.63
2023-02-27T17:58:20.885Z,4.50
2023-02-27T18:02:04.883Z,4.60
2023-02-27T18:05:51.947Z,4.43
2023-02-27T18:09:34.679Z,5.53
2023-02-27T18:13:18.606Z,5.40
2023-02-27T18:17:01.309Z,5.50
2023-02-27T18:20:45.526Z,5.53
2023-02-27T18:24:28.165Z,4.90
2023-02-27T18:28:11.845Z,5.10
2023-02-27T18:31:54.900Z,4.60
2023-02-27T18:35:37.571Z,4.70
2023-02-27T18:39:22.801Z,4.97
2023-02-27T18:43:05.492Z,4.43
2023-02-27T18:46:48.331Z,4.83
2023-02-27T18:50:30.998Z,5.20
2023-02-27T18:54:14.264Z,4.73
2023-02-27T18:57:58.233Z,5.00
2023-02-27T19:01:40.906Z,5.10
2023-02-27T19:05:23.553Z,5.67
2023-02-27T19:09:06.820Z,5.27
2023-02-27T19:12:51.078Z,5.37
2023-02-27T19:16:35.380Z,5.40
2023-02-27T19:20:18.589Z,5.70
2023-02-27T19:24:01.822Z,5.23
2023-02-27T19:27:44.772Z,5.30
2023-02-27T19:31:28.592Z,5.10
2023-02-27T19:35:15.220Z,4.80
2023-02-27T19:38:58.290Z,4.90
2023-02-27T19:42:40.932Z,5.53
2023-02-27T19:46:25.372Z,4.60
2023-02-27T19:50:08.940Z,5.10
2023-02-27T19:53:53.777Z,4.97
2023-02-27T19:57:36.857Z,4.90
2023-02-27T20:01:23.522Z,4.70
2023-02-27T20:05:06.818Z,4.80
2023-02-27T20:08:49.532Z,5.00
2023-02-27T20:12:33.531Z,4.83
2023-02-27T20:16:20.629Z,4.70
2023-02-27T20:20:04.786Z,4.87
2023-02-27T20:23:48.759Z,4.57
2023-02-27T20:27:32.816Z,4.70
2023-02-27T20:31:16.564Z,4.07
2023-02-27T20:34:59.265Z,4.37
2023-02-27T20:38:42.517Z,4.40
2023-02-27T20:42:25.189Z,3.83
2023-02-27T20:46:11.590Z,3.97
2023-02-27T20:49:54.276Z,3.93
2023-02-27T20:53:37.319Z,3.53
2023-02-27T20:57:19.940Z,3.80
2023-02-27T21:01:04.383Z,3.30
2023-02-27T21:04:50.605Z,3.50
2023-02-27T21:08:33.334Z,3.43
2023-02-27T21:12:16.081Z,3.43
2023-02-27T21:16:00.900Z,4.00
2023-02-27T21:19:43.590Z,3.17
2023-02-27T21:23:27.718Z,3.00
2023-02-27T21:27:10.491Z,3.30
2023-02-27T21:30:54.457Z,3.17
2023-02-27T21:34:37.176Z,3.60
2023-02-27T21:38:19.879Z,3.47
2023-02-27T21:42:03.932Z,3.97
2023-02-27T21:45:51.524Z,3.63
2023-02-27T21:49:34.378Z,3.20
2023-02-27T21:53:17.013Z,2.83
2023-02-27T21:57:01.852Z,2.40
2023-02-27T22:00:45.788Z,3.00
2023-02-27T22:04:28.481Z,2.70
2023-02-27T22:08:11.206Z,2.70
2023-02-27T22:11:53.864Z,2.70
2023-02-27T22:15:36.751Z,2.97
2023-02-27T22:19:21.969Z,3.00
2023-02-27T22:23:04.613Z,3.17
2023-02-27T22:26:47.736Z,3.10
2023-02-27T22:30:30.933Z,2.80
2023-02-27T22:34:17.849Z,3.13
2023-02-27T22:38:01.962Z,2.80
2023-02-27T22:41:46.042Z,3.10
2023-02-27T22:45:28.659Z,2.50
2023-02-27T22:49:12.985Z,3.10
2023-02-27T22:52:55.634Z,2.97
2023-02-27T22:56:39.690Z,3.20
2023-02-27T23:00:22.783Z,3.00
2023-02-27T23:04:07.276Z,3.00
2023-02-27T23:07:49.959Z,3.37
2023-02-27T23:11:32.926Z,3.10
2023-02-27T23:15:17.102Z,3.10
2023-02-27T23:19:00.584Z,3.60
2023-02-27T23:22:43.201Z,3.20
2023-02-27T23:26:28.607Z,3.30
2023-02-27T23:30:12.787Z,3.07
2023-02-27T23:33:56.761Z,3.60
2023-02-27T23:37:39.584Z,3.00
2023-02-27T23:41:22.239Z,3.37
2023-02-27T23:45:05.413Z,3.40
2023-02-27T23:48:48.725Z,3.07
2023-02-27T23:52:32.807Z,3.30
2023-02-27T23:56:17.977Z,3.37
